Time;durP1;ratioP1;P1;durP2;ratioP2;P2;SDS_P1;SDS_P2;PMS_P1;PMS_P2;Temp;Humidity;BMP_temperature;BMP_pressure;BME280_temperature;BME280_humidity;BME280_pressure;Samples;Min_cycle;Max_cycle;Signal;HPM_P1;HPM_P2
2023/11/14 00:00:20;;;;;;;32.42;6.55;;;;;;;;;;5050170;28;20120;-59
2023/11/14 00:02:46;;;;;;;37.15;7.30;;;;;;;;;;5043910;28;20346;-59
2023/11/14 00:05:12;;;;;;;36.70;7.00;;;;;;;;;;5048124;28;20071;-59
2023/11/14 00:07:38;;;;;;;33.20;6.95;;;;;;;;;;5050062;28;20053;-59
2023/11/14 00:10:05;;;;;;;34.00;6.90;;;;;;;;;;5048811;28;20059;-59
2023/11/14 00:12:31;;;;;;;31.98;5.75;;;;;;;;;;5049037;28;20041;-59
2023/11/14 00:14:57;;;;;;;45.92;7.05;;;;;;;;;;5051454;28;20033;-59
2023/11/14 00:17:23;;;;;;;41.45;6.32;;;;;;;;;;5048800;28;20041;-59
2023/11/14 00:19:50;;;;;;;34.22;6.07;;;;;;;;;;5048811;28;20064;-59
2023/11/14 00:22:16;;;;;;;49.55;7.70;;;;;;;;;;5048681;28;20095;-59
2023/11/14 00:24:42;;;;;;;37.67;6.53;;;;;;;;;;5047709;28;20520;-59
2023/11/14 00:27:08;;;;;;;42.88;7.63;;;;;;;;;;5048639;28;20049;-59
2023/11/14 00:29:35;;;;;;;35.63;6.32;;;;;;;;;;5045244;28;20544;-59
2023/11/14 00:32:01;;;;;;;30.52;5.63;;;;;;;;;;5046218;28;20115;-59
2023/11/14 00:34:29;;;;;;;41.50;6.93;;;;;;;;;;5048003;28;20036;-59
2023/11/14 00:36:55;;;;;;;42.42;7.53;;;;;;;;;;5051104;28;20376;-59
2023/11/14 00:39:22;;;;;;;33.10;6.97;;;;;;;;;;5049368;28;20092;-59
2023/11/14 00:41:53;;;;;;;51.13;7.47;;;;;;;;;;5050077;28;20044;-59
2023/11/14 00:44:20;;;;;;;47.08;6.78;;;;;;;;;;5049755;28;20048;-59
2023/11/14 00:46:46;;;;;;;42.95;6.57;;;;;;;;;;5047912;28;20041;-59
2023/11/14 00:49:12;;;;;;;42.55;6.65;;;;;;;;;;5047998;28;20071;-59
2023/11/14 00:51:38;;;;;;;46.42;6.80;;;;;;;;;;5048883;28;20182;-59
2023/11/14 00:54:05;;;;;;;37.15;6.53;;;;;;;;;;5049624;28;20051;-59
2023/11/14 00:56:31;;;;;;;36.05;6.22;;;;;;;;;;5050557;28;20045;-59
2023/11/14 00:58:57;;;;;;;39.95;6.97;;;;;;;;;;5048260;28;20145;-59
2023/11/14 01:01:23;;;;;;;36.55;6.68;;;;;;;;;;5049415;28;20166;-59
2023/11/14 01:03:50;;;;;;;39.20;6.07;;;;;;;;;;5046574;28;20497;-59
2023/11/14 01:06:17;;;;;;;41.92;7.32;;;;;;;;;;5049572;28;20392;-59
2023/11/14 01:08:43;;;;;;;38.10;6.78;;;;;;;;;;5046197;28;20048;-59
2023/11/14 01:11:10;;;;;;;49.47;8.05;;;;;;;;;;5050614;28;20118;-59
2023/11/14 01:13:36;;;;;;;52.13;8.55;;;;;;;;;;5049985;28;20043;-59
2023/11/14 01:16:02;;;;;;;36.80;6.25;;;;;;;;;;5048180;28;20033;-59
2023/11/14 01:18:28;;;;;;;39.05;7.45;;;;;;;;;;5031748;28;20045;-59
2023/11/14 01:20:55;;;;;;;37.35;6.00;;;;;;;;;;5047897;28;20507;-59
2023/11/14 01:23:21;;;;;;;41.30;6.40;;;;;;;;;;5047990;28;20102;-59
2023/11/14 01:25:47;;;;;;;31.75;5.85;;;;;;;;;;5046921;28;20433;-59
2023/11/14 01:28:13;;;;;;;43.05;6.30;;;;;;;;;;5045205;28;20049;-59
2023/11/14 01:30:39;;;;;;;44.13;6.35;;;;;;;;;;5047966;28;20049;-59
2023/11/14 01:33:05;;;;;;;36.83;6.53;;;;;;;;;;5047871;28;20065;-59
2023/11/14 01:35:32;;;;;;;39.38;6.97;;;;;;;;;;5047882;28;20056;-59
2023/11/14 01:37:58;;;;;;;37.35;7.38;;;;;;;;;;5047597;28;20067;-59
2023/11/14 01:40:24;;;;;;;34.40;7.10;;;;;;;;;;5049894;28;20045;-59
2023/11/14 01:42:50;;;;;;;44.97;7.35;;;;;;;;;;5049659;28;20096;-59
2023/11/14 01:45:17;;;;;;;42.83;7.68;;;;;;;;;;5047117;28;20395;-59
2023/11/14 01:47:47;;;;;;;42.05;6.85;;;;;;;;;;5048700;28;20041;-59
2023/11/14 01:50:13;;;;;;;47.63;7.10;;;;;;;;;;5031542;28;20127;-59
2023/11/14 01:52:39;;;;;;;42.55;8.15;;;;;;;;;;5047996;28;20430;-59
2023/11/14 01:55:05;;;;;;;44.00;8.52;;;;;;;;;;5047445;28;20044;-59
2023/11/14 01:57:33;;;;;;;38.80;6.80;;;;;;;;;;5045940;28;20461;-59
2023/11/14 02:00:00;;;;;;;43.13;8.23;;;;;;;;;;5048568;28;20094;-59
2023/11/14 02:02:27;;;;;;;41.08;6.68;;;;;;;;;;5048081;28;20045;-59
2023/11/14 02:04:54;;;;;;;47.65;7.47;;;;;;;;;;5047440;28;20037;-59
2023/11/14 02:07:20;;;;;;;49.75;8.63;;;;;;;;;;5047859;28;20091;-59
2023/11/14 02:09:46;;;;;;;41.45;7.32;;;;;;;;;;5048417;28;20053;-59
2023/11/14 02:12:13;;;;;;;34.03;6.85;;;;;;;;;;5048707;28;20050;-59
2023/11/14 02:14:39;;;;;;;38.30;6.68;;;;;;;;;;5049375;28;20037;-59
2023/11/14 02:17:05;;;;;;;47.92;7.35;;;;;;;;;;5047136;28;20124;-59
2023/11/14 02:19:31;;;;;;;48.25;6.93;;;;;;;;;;5048183;28;20044;-59
2023/11/14 02:21:57;;;;;;;41.33;9.63;;;;;;;;;;5048110;28;20041;-59
2023/11/14 02:24:24;;;;;;;48.42;8.27;;;;;;;;;;5047162;28;20057;-59
2023/11/14 02:26:51;;;;;;;44.35;6.40;;;;;;;;;;5045396;28;20397;-59
2023/11/14 02:29:20;;;;;;;42.35;7.47;;;;;;;;;;5047499;28;20053;-59
2023/11/14 02:31:48;;;;;;;40.90;8.32;;;;;;;;;;5051259;28;20052;-59
2023/11/14 02:34:14;;;;;;;37.53;6.55;;;;;;;;;;5052149;28;20076;-59
2023/11/14 02:36:40;;;;;;;42.28;7.20;;;;;;;;;;5051069;28;20459;-59
2023/11/14 02:39:07;;;;;;;43.45;7.65;;;;;;;;;;5053839;28;20045;-59
2023/11/14 02:41:35;;;;;;;42.72;7.22;;;;;;;;;;5041217;28;20461;-59
2023/11/14 02:44:01;;;;;;;46.10;7.60;;;;;;;;;;5040197;28;20086;-59
2023/11/14 02:46:28;;;;;;;39.35;6.55;;;;;;;;;;5042775;28;20119;-59
2023/11/14 02:48:54;;;;;;;33.08;6.70;;;;;;;;;;5042228;28;20048;-59
2023/11/14 02:51:20;;;;;;;30.70;7.07;;;;;;;;;;5043472;28;20124;-59
2023/11/14 02:53:46;;;;;;;35.50;6.05;;;;;;;;;;5042521;28;20045;-59
2023/11/14 02:56:13;;;;;;;52.05;8.93;;;;;;;;;;5042527;28;20055;-59
2023/11/14 02:58:39;;;;;;;37.55;6.18;;;;;;;;;;5042894;28;20107;-59
2023/11/14 03:01:05;;;;;;;41.40;6.93;;;;;;;;;;5042534;28;20107;-59
2023/11/14 03:03:31;;;;;;;34.22;7.03;;;;;;;;;;5041431;28;20520;-59
2023/11/14 03:06:02;;;;;;;34.45;6.50;;;;;;;;;;5043504;28;20040;-59
2023/11/14 03:08:28;;;;;;;40.22;5.78;;;;;;;;;;5049948;28;20086;-59
2023/11/14 03:10:56;;;;;;;35.33;5.68;;;;;;;;;;5036485;28;20071;-59
2023/11/14 03:13:22;;;;;;;31.70;6.85;;;;;;;;;;5045574;28;20084;-59
2023/11/14 03:15:48;;;;;;;33.00;5.82;;;;;;;;;;5042558;28;20045;-59
2023/11/14 03:18:15;;;;;;;38.83;6.57;;;;;;;;;;5044616;28;20059;-59
2023/11/14 03:20:41;;;;;;;36.08;6.53;;;;;;;;;;5045986;28;20044;-59
2023/11/14 03:23:07;;;;;;;42.33;6.90;;;;;;;;;;5046934;28;20102;-59
2023/11/14 03:25:33;;;;;;;33.42;5.60;;;;;;;;;;5056218;28;20088;-59
2023/11/14 03:28:01;;;;;;;37.70;6.30;;;;;;;;;;5045584;28;20496;-59
2023/11/14 03:30:27;;;;;;;38.80;6.05;;;;;;;;;;5044953;28;20524;-59
2023/11/14 03:32:54;;;;;;;34.42;5.47;;;;;;;;;;5045009;28;20128;-59
2023/11/14 03:35:20;;;;;;;44.05;7.65;;;;;;;;;;5048396;28;20041;-59
2023/11/14 03:37:46;;;;;;;41.97;7.03;;;;;;;;;;5043985;28;20075;-59
2023/11/14 03:40:13;;;;;;;32.58;6.65;;;;;;;;;;5044967;28;20358;-59
2023/11/14 03:42:39;;;;;;;36.90;6.13;;;;;;;;;;5045302;28;20485;-59
2023/11/14 03:45:06;;;;;;;31.13;6.07;;;;;;;;;;5050750;28;20048;-59
2023/11/14 03:47:32;;;;;;;43.15;7.95;;;;;;;;;;5044222;28;20116;-59
2023/11/14 03:49:58;;;;;;;44.55;7.35;;;;;;;;;;5049533;28;20072;-59
2023/11/14 03:52:25;;;;;;;37.72;7.22;;;;;;;;;;5053500;28;20044;-59
2023/11/14 03:54:51;;;;;;;40.85;7.68;;;;;;;;;;5044376;28;20424;-59
2023/11/14 03:57:19;;;;;;;33.30;5.97;;;;;;;;;;5043713;28;20041;-59
2023/11/14 03:59:45;;;;;;;40.38;6.57;;;;;;;;;;5043910;28;20074;-59
2023/11/14 04:02:12;;;;;;;50.13;9.13;;;;;;;;;;5045011;28;20191;-59
2023/11/14 04:04:38;;;;;;;46.13;9.43;;;;;;;;;;5042478;28;20060;-59
2023/11/14 04:07:05;;;;;;;43.90;7.90;;;;;;;;;;5044426;28;20385;-59
2023/11/14 04:09:31;;;;;;;44.13;7.47;;;;;;;;;;5045624;28;20064;-59
2023/11/14 04:11:58;;;;;;;39.10;6.35;;;;;;;;;;5042185;28;20107;-59
2023/11/14 04:14:24;;;;;;;39.00;7.20;;;;;;;;;;5043313;28;20045;-59
2023/11/14 04:16:50;;;;;;;47.30;8.55;;;;;;;;;;5045060;28;20188;-59
2023/11/14 04:19:16;;;;;;;43.40;6.13;;;;;;;;;;5044237;28;20120;-59
2023/11/14 04:21:42;;;;;;;35.80;7.55;;;;;;;;;;5043878;28;20171;-59
2023/11/14 04:24:09;;;;;;;35.78;7.00;;;;;;;;;;5047347;28;20045;-59
2023/11/14 04:26:35;;;;;;;39.90;6.07;;;;;;;;;;5044190;28;20076;-59
2023/11/14 04:29:02;;;;;;;37.55;5.75;;;;;;;;;;5043370;28;20503;-59
2023/11/14 04:31:28;;;;;;;34.35;6.72;;;;;;;;;;5042478;28;20060;-59
2023/11/14 04:33:54;;;;;;;35.05;6.60;;;;;;;;;;5042947;28;20072;-59
2023/11/14 04:36:20;;;;;;;40.88;7.38;;;;;;;;;;5045466;28;20044;-59
2023/11/14 04:38:46;;;;;;;35.35;6.68;;;;;;;;;;5045034;28;20044;-59
2023/11/14 04:41:16;;;;;;;40.65;7.00;;;;;;;;;;5056793;28;20036;-59
2023/11/14 04:43:42;;;;;;;40.47;6.95;;;;;;;;;;5042769;28;20089;-59
2023/11/14 04:46:08;;;;;;;45.50;8.57;;;;;;;;;;5042338;28;20147;-59
2023/11/14 04:48:34;;;;;;;41.33;7.82;;;;;;;;;;5043535;28;20489;-59
2023/11/14 04:51:00;;;;;;;38.42;6.43;;;;;;;;;;5041972;28;20078;-59
2023/11/14 04:53:26;;;;;;;52.75;7.60;;;;;;;;;;5045609;28;20052;-59
2023/11/14 04:55:52;;;;;;;45.33;7.70;;;;;;;;;;5050099;28;20059;-59
2023/11/14 04:58:19;;;;;;;48.60;8.88;;;;;;;;;;5048364;28;20044;-59
2023/11/14 05:00:45;;;;;;;52.03;7.65;;;;;;;;;;5040611;28;20049;-59
2023/11/14 05:03:11;;;;;;;50.85;8.13;;;;;;;;;;5044101;28;20076;-59
2023/11/14 05:05:37;;;;;;;39.40;8.40;;;;;;;;;;5042604;28;20055;-59
2023/11/14 05:08:03;;;;;;;52.22;8.45;;;;;;;;;;5044647;28;20040;-59
2023/11/14 05:10:30;;;;;;;42.03;8.05;;;;;;;;;;5059184;28;20063;-59
2023/11/14 05:12:56;;;;;;;39.20;7.63;;;;;;;;;;5032660;28;20489;-59
2023/11/14 05:15:22;;;;;;;49.13;8.35;;;;;;;;;;5050446;28;20092;-59
2023/11/14 05:17:49;;;;;;;40.67;7.45;;;;;;;;;;5043096;28;20504;-59
2023/11/14 05:20:15;;;;;;;52.22;8.85;;;;;;;;;;5047881;28;20075;-59
2023/11/14 05:22:41;;;;;;;36.58;7.18;;;;;;;;;;5048274;28;20137;-59
2023/11/14 05:25:09;;;;;;;43.30;7.30;;;;;;;;;;5019531;28;20049;-59
2023/11/14 05:27:36;;;;;;;49.35;7.35;;;;;;;;;;5049681;28;20055;-58
2023/11/14 05:30:03;;;;;;;44.60;8.23;;;;;;;;;;5057318;28;20064;-59
2023/11/14 05:32:29;;;;;;;52.13;8.98;;;;;;;;;;5055281;28;20071;-59
2023/11/14 05:34:55;;;;;;;43.25;7.05;;;;;;;;;;5053544;28;20516;-59
2023/11/14 05:37:21;;;;;;;50.78;7.57;;;;;;;;;;5050703;28;20036;-59
2023/11/14 05:39:47;;;;;;;42.05;7.45;;;;;;;;;;5043783;28;20041;-59
2023/11/14 05:42:14;;;;;;;41.22;6.75;;;;;;;;;;5050526;28;20099;-59
2023/11/14 05:44:40;;;;;;;41.55;6.03;;;;;;;;;;5049559;28;20358;-59
2023/11/14 05:47:07;;;;;;;45.92;7.43;;;;;;;;;;5046968;28;20045;-59
2023/11/14 05:49:34;;;;;;;56.60;8.23;;;;;;;;;;5048068;28;20074;-59
2023/11/14 05:52:00;;;;;;;52.75;9.88;;;;;;;;;;5053565;28;20048;-59
2023/11/14 05:54:26;;;;;;;49.25;7.05;;;;;;;;;;5052195;28;20392;-59
2023/11/14 05:56:52;;;;;;;45.83;8.65;;;;;;;;;;5056757;28;20131;-59
2023/11/14 05:59:18;;;;;;;54.28;7.82;;;;;;;;;;5051003;28;20045;-59
2023/11/14 06:01:44;;;;;;;53.10;8.32;;;;;;;;;;5051927;28;20072;-59
2023/11/14 06:04:11;;;;;;;47.92;7.60;;;;;;;;;;5048327;28;20083;-60
2023/11/14 06:06:37;;;;;;;51.25;9.88;;;;;;;;;;5049285;28;20127;-59
2023/11/14 06:09:03;;;;;;;47.08;8.25;;;;;;;;;;5049337;28;20045;-59
2023/11/14 06:11:29;;;;;;;56.63;8.45;;;;;;;;;;5049589;28;20080;-59
2023/11/14 06:13:55;;;;;;;45.42;6.65;;;;;;;;;;5044845;28;20112;-59
2023/11/14 06:16:22;;;;;;;53.83;9.32;;;;;;;;;;5044220;28;20060;-59
2023/11/14 06:18:48;;;;;;;38.67;7.78;;;;;;;;;;5048248;28;20392;-59
2023/11/14 06:21:14;;;;;;;42.72;7.55;;;;;;;;;;5050179;28;20107;-59
2023/11/14 06:23:40;;;;;;;53.50;10.27;;;;;;;;;;5046690;28;20117;-59
2023/11/14 06:26:06;;;;;;;45.95;7.38;;;;;;;;;;5039484;28;20081;-59
2023/11/14 06:28:33;;;;;;;45.97;8.35;;;;;;;;;;5048945;28;20045;-59
2023/11/14 06:30:59;;;;;;;54.28;8.00;;;;;;;;;;5049405;28;20122;-59
2023/11/14 06:33:26;;;;;;;49.95;8.32;;;;;;;;;;5048422;28;20059;-59
2023/11/14 06:35:53;;;;;;;55.22;7.38;;;;;;;;;;5049046;28;20119;-60
2023/11/14 06:38:19;;;;;;;48.80;6.85;;;;;;;;;;5057412;28;20242;-60
2023/11/14 06:40:46;;;;;;;51.13;7.82;;;;;;;;;;5066094;28;20135;-60
2023/11/14 06:43:13;;;;;;;40.78;6.85;;;;;;;;;;5063291;28;20056;-60
2023/11/14 06:45:39;;;;;;;46.80;6.72;;;;;;;;;;5063450;28;20051;-60
2023/11/14 06:48:06;;;;;;;47.17;6.78;;;;;;;;;;5049330;28;20055;-60
2023/11/14 06:50:32;;;;;;;40.35;5.43;;;;;;;;;;5032288;28;20041;-60
2023/11/14 06:53:00;;;;;;;41.58;6.50;;;;;;;;;;5052877;28;20055;-60
2023/11/14 06:55:28;;;;;;;42.33;6.63;;;;;;;;;;5064321;28;20421;-59
2023/11/14 06:57:54;;;;;;;44.67;6.78;;;;;;;;;;5067767;28;20127;-59
2023/11/14 07:00:20;;;;;;;47.88;6.95;;;;;;;;;;5050715;28;20465;-60
2023/11/14 07:02:47;;;;;;;38.63;6.35;;;;;;;;;;5055396;28;20540;-60
2023/11/14 07:05:13;;;;;;;42.70;7.78;;;;;;;;;;5050147;28;20374;-60
2023/11/14 07:07:39;;;;;;;40.72;6.20;;;;;;;;;;5051650;28;20188;-60
2023/11/14 07:10:06;;;;;;;39.45;6.35;;;;;;;;;;5052862;28;20053;-60
2023/11/14 07:12:33;;;;;;;50.53;7.15;;;;;;;;;;5054686;28;20041;-60
2023/11/14 07:15:00;;;;;;;44.80;6.22;;;;;;;;;;5050012;28;20045;-60
2023/11/14 07:17:26;;;;;;;46.95;7.70;;;;;;;;;;5052573;28;20138;-60
2023/11/14 07:19:54;;;;;;;44.83;7.25;;;;;;;;;;5050168;28;20053;-60
2023/11/14 07:22:20;;;;;;;45.53;7.88;;;;;;;;;;5049407;28;20115;-59
2023/11/14 07:24:46;;;;;;;55.67;8.10;;;;;;;;;;5052867;28;20469;-59
2023/11/14 07:27:15;;;;;;;44.42;7.18;;;;;;;;;;5048877;28;20401;-60
2023/11/14 07:29:42;;;;;;;50.28;7.15;;;;;;;;;;5050622;28;20129;-60
2023/11/14 07:32:08;;;;;;;37.63;6.57;;;;;;;;;;5050102;28;20138;-60
2023/11/14 07:34:34;;;;;;;42.78;7.47;;;;;;;;;;5053111;28;20049;-60
2023/11/14 07:37:02;;;;;;;38.30;5.70;;;;;;;;;;5051141;28;20103;-60
2023/11/14 07:39:28;;;;;;;41.70;6.97;;;;;;;;;;5056200;28;20474;-60
2023/11/14 07:41:54;;;;;;;36.28;5.38;;;;;;;;;;5055257;28;20064;-60
2023/11/14 07:44:21;;;;;;;37.10;5.80;;;;;;;;;;5060708;28;20469;-60
2023/11/14 07:46:47;;;;;;;41.85;7.95;;;;;;;;;;5073125;28;20037;-60
2023/11/14 07:49:14;;;;;;;37.83;5.75;;;;;;;;;;5063932;28;20059;-60
2023/11/14 07:51:40;;;;;;;39.53;5.95;;;;;;;;;;5054687;28;20529;-68
2023/11/14 07:54:06;;;;;;;42.72;7.07;;;;;;;;;;5061910;28;20143;-60
2023/11/14 07:56:32;;;;;;;38.28;7.15;;;;;;;;;;5057626;28;20087;-60
2023/11/14 07:58:59;;;;;;;37.33;7.22;;;;;;;;;;5059929;28;20101;-60
2023/11/14 08:01:25;;;;;;;37.75;6.10;;;;;;;;;;5055529;28;20052;-60
2023/11/14 08:03:51;;;;;;;46.67;7.82;;;;;;;;;;5072127;28;20115;-60
2023/11/14 08:06:17;;;;;;;38.70;7.15;;;;;;;;;;5072895;28;20040;-60
2023/11/14 08:08:44;;;;;;;39.75;6.20;;;;;;;;;;5072256;28;20049;-60
2023/11/14 08:11:11;;;;;;;39.95;7.05;;;;;;;;;;5062158;28;20041;-60
2023/11/14 08:13:37;;;;;;;33.45;7.05;;;;;;;;;;5069570;28;20460;-60
2023/11/14 08:16:04;;;;;;;39.33;6.78;;;;;;;;;;5060814;28;20089;-60
2023/11/14 08:18:30;;;;;;;47.83;6.28;;;;;;;;;;5068948;28;20378;-60
2023/11/14 08:20:56;;;;;;;52.33;7.00;;;;;;;;;;5051195;28;20048;-60
2023/11/14 08:23:22;;;;;;;48.53;8.02;;;;;;;;;;5045840;28;20085;-60
2023/11/14 08:25:49;;;;;;;37.13;6.97;;;;;;;;;;5048949;28;20059;-60
2023/11/14 08:28:15;;;;;;;42.63;6.47;;;;;;;;;;5061137;28;20523;-60
2023/11/14 08:30:41;;;;;;;42.08;7.35;;;;;;;;;;5071797;28;20114;-60
2023/11/14 08:33:07;;;;;;;42.00;6.75;;;;;;;;;;5051831;28;20492;-60
2023/11/14 08:35:33;;;;;;;34.83;5.50;;;;;;;;;;5046839;28;20143;-60
2023/11/14 08:38:00;;;;;;;38.78;7.18;;;;;;;;;;5044910;28;20049;-60
2023/11/14 08:40:28;;;;;;;35.83;6.75;;;;;;;;;;5047747;28;20432;-60
2023/11/14 08:42:55;;;;;;;35.03;6.90;;;;;;;;;;5045792;28;20080;-60
2023/11/14 08:45:23;;;;;;;45.80;8.88;;;;;;;;;;5045739;28;20128;-60
2023/11/14 08:47:50;;;;;;;46.63;7.18;;;;;;;;;;5044865;28;20052;-60
2023/11/14 08:50:18;;;;;;;46.20;6.75;;;;;;;;;;5028413;28;20052;-60
2023/11/14 08:52:45;;;;;;;50.45;7.95;;;;;;;;;;5045959;28;20049;-60
2023/11/14 08:55:11;;;;;;;56.35;10.48;;;;;;;;;;5044995;28;20121;-60
2023/11/14 08:57:37;;;;;;;38.70;6.25;;;;;;;;;;5043974;28;20389;-60
2023/11/14 09:00:08;;;;;;;49.20;7.13;;;;;;;;;;5044736;28;20053;-60
2023/11/14 09:02:34;;;;;;;49.97;7.47;;;;;;;;;;5046112;28;20045;-60
2023/11/14 09:05:00;;;;;;;46.42;7.22;;;;;;;;;;5042923;28;20409;-60
2023/11/14 09:07:26;;;;;;;46.80;7.95;;;;;;;;;;5042830;28;20041;-60
2023/11/14 09:09:53;;;;;;;43.15;6.15;;;;;;;;;;5043021;28;20139;-60
2023/11/14 09:12:19;;;;;;;47.67;7.88;;;;;;;;;;5042982;28;20494;-60
2023/11/14 09:14:46;;;;;;;44.40;7.55;;;;;;;;;;5042533;28;20106;-60
2023/11/14 09:17:12;;;;;;;47.20;6.70;;;;;;;;;;5046842;28;20052;-60
2023/11/14 09:19:39;;;;;;;46.90;7.75;;;;;;;;;;5044965;28;20041;-60
2023/11/14 09:22:06;;;;;;;50.38;8.00;;;;;;;;;;5045080;28;20128;-60
2023/11/14 09:24:32;;;;;;;56.35;8.90;;;;;;;;;;5046837;28;20071;-60
2023/11/14 09:26:58;;;;;;;47.25;8.35;;;;;;;;;;5045734;28;20040;-60
2023/11/14 09:29:24;;;;;;;42.88;7.57;;;;;;;;;;5043347;28;20065;-60
2023/11/14 09:31:50;;;;;;;59.88;10.32;;;;;;;;;;5044391;28;20061;-60
2023/11/14 09:34:17;;;;;;;48.08;8.35;;;;;;;;;;5042383;28;20098;-61
2023/11/14 09:36:43;;;;;;;46.08;8.73;;;;;;;;;;5046509;28;20091;-61
2023/11/14 09:39:10;;;;;;;45.40;8.40;;;;;;;;;;5044883;28;20465;-61
2023/11/14 09:41:36;;;;;;;50.25;8.85;;;;;;;;;;5044649;28;20400;-61
2023/11/14 09:44:02;;;;;;;49.90;7.80;;;;;;;;;;5043246;28;20045;-60
2023/11/14 09:46:32;;;;;;;57.72;10.15;;;;;;;;;;5041688;28;20033;-60
2023/11/14 09:48:58;;;;;;;44.40;8.20;;;;;;;;;;5042744;28;20072;-60
2023/11/14 09:51:25;;;;;;;45.58;7.38;;;;;;;;;;5042898;28;20404;-60
2023/11/14 09:53:52;;;;;;;41.20;8.93;;;;;;;;;;5046022;28;20045;-61
2023/11/14 09:56:18;;;;;;;46.03;7.97;;;;;;;;;;5043354;28;20044;-61
2023/11/14 09:58:44;;;;;;;34.40;6.22;;;;;;;;;;5043851;28;20065;-60
2023/11/14 10:01:12;;;;;;;41.42;7.65;;;;;;;;;;5042365;28;20759;-61
2023/11/14 10:03:38;;;;;;;47.08;8.95;;;;;;;;;;5040684;28;20045;-60
2023/11/14 10:06:04;;;;;;;41.15;7.70;;;;;;;;;;5043339;28;20049;-60
2023/11/14 10:08:33;;;;;;;41.60;6.70;;;;;;;;;;5044262;28;20406;-60
2023/11/14 10:11:05;;;;;;;40.25;7.45;;;;;;;;;;5042330;28;20044;-60
2023/11/14 10:13:31;;;;;;;39.92;6.68;;;;;;;;;;5043966;28;20036;-60
2023/11/14 10:16:13;;;;;;;42.53;6.88;;;;;;;;;;5027396;28;20038;-60
2023/11/14 10:18:39;;;;;;;42.28;8.48;;;;;;;;;;5043307;28;20163;-60
2023/11/14 10:21:05;;;;;;;40.47;6.78;;;;;;;;;;5045660;28;20159;-60
2023/11/14 10:23:36;;;;;;;34.75;7.53;;;;;;;;;;5049289;28;20052;-60
2023/11/14 10:26:08;;;;;;;37.90;5.97;;;;;;;;;;5035639;28;20436;-61
2023/11/14 10:28:35;;;;;;;32.10;6.22;;;;;;;;;;5053838;28;20064;-61
2023/11/14 10:31:01;;;;;;;36.58;5.80;;;;;;;;;;5052484;28;20840;-60
2023/11/14 10:33:39;;;;;;;41.72;7.80;;;;;;;;;;5051144;28;20037;-60
2023/11/14 10:36:08;;;;;;;28.95;6.32;;;;;;;;;;5055365;28;20045;-60
2023/11/14 10:38:35;;;;;;;35.33;6.05;;;;;;;;;;5066711;28;20186;-60
2023/11/14 10:41:02;;;;;;;38.35;6.95;;;;;;;;;;5068931;28;20048;-60
2023/11/14 10:43:29;;;;;;;36.10;7.20;;;;;;;;;;5061705;28;20512;-59
2023/11/14 10:45:56;;;;;;;33.95;6.80;;;;;;;;;;5073452;28;20051;-60
2023/11/14 10:48:22;;;;;;;45.80;7.28;;;;;;;;;;5065243;28;20066;-60
2023/11/14 10:50:49;;;;;;;37.95;6.18;;;;;;;;;;5065550;28;20090;-60
2023/11/14 10:53:15;;;;;;;43.70;6.50;;;;;;;;;;5067869;28;20044;-60
2023/11/14 10:55:43;;;;;;;43.72;6.28;;;;;;;;;;5073692;28;20041;-60
2023/11/14 10:58:10;;;;;;;36.40;6.43;;;;;;;;;;5058662;28;20048;-60
2023/11/14 11:00:37;;;;;;;36.47;6.13;;;;;;;;;;5062487;28;20041;-60
2023/11/14 11:03:04;;;;;;;37.22;7.38;;;;;;;;;;5052494;28;20056;-60
2023/11/14 11:05:32;;;;;;;36.05;6.60;;;;;;;;;;5073809;28;20036;-60
2023/11/14 11:08:08;;;;;;;42.08;7.28;;;;;;;;;;5042246;28;20045;-60
2023/11/14 11:10:37;;;;;;;41.70;7.20;;;;;;;;;;5052438;28;20044;-61
2023/11/14 11:13:12;;;;;;;44.05;7.93;;;;;;;;;;5029282;28;20156;-60
2023/11/14 11:15:42;;;;;;;41.60;7.80;;;;;;;;;;5056678;28;20043;-60
2023/11/14 11:18:09;;;;;;;30.98;6.38;;;;;;;;;;5059191;28;20080;-60
2023/11/14 11:20:35;;;;;;;52.58;8.68;;;;;;;;;;5065436;28;20440;-60
2023/11/14 11:23:08;;;;;;;30.75;6.07;;;;;;;;;;5035627;28;20045;-60
2023/11/14 11:25:34;;;;;;;40.40;7.27;;;;;;;;;;5058982;28;20067;-60
2023/11/14 11:28:21;;;;;;;34.78;6.70;;;;;;;;;;5061363;28;20333;-61
2023/11/14 11:31:23;;;;;;;32.42;6.45;;;;;;;;;;5038375;28;20044;-60
2023/11/14 11:33:50;;;;;;;37.58;7.43;;;;;;;;;;5039371;28;20057;-60
2023/11/14 11:36:23;;;;;;;39.08;7.00;;;;;;;;;;5054537;28;20082;-60
2023/11/14 11:38:53;;;;;;;34.50;6.85;;;;;;;;;;5047821;28;20501;-60
2023/11/14 11:41:20;;;;;;;39.33;6.28;;;;;;;;;;5027854;28;20045;-60
2023/11/14 11:43:46;;;;;;;33.05;6.47;;;;;;;;;;5047011;28;20118;-60
2023/11/14 11:46:31;;;;;;;39.35;6.53;;;;;;;;;;5046356;28;20041;-60
2023/11/14 11:48:57;;;;;;;37.08;7.15;;;;;;;;;;5044675;28;20059;-60
2023/11/14 11:51:25;;;;;;;42.95;7.05;;;;;;;;;;5049947;28;20135;-60
2023/11/14 11:53:52;;;;;;;42.33;6.68;;;;;;;;;;5044834;28;20064;-60
2023/11/14 11:56:36;;;;;;;40.90;7.25;;;;;;;;;;5044726;28;20041;-60
2023/11/14 11:59:03;;;;;;;48.60;7.40;;;;;;;;;;5043888;28;20049;-60
2023/11/14 12:01:31;;;;;;;46.20;7.68;;;;;;;;;;5044536;28;20370;-60
2023/11/14 12:03:58;;;;;;;42.53;6.55;;;;;;;;;;5044659;28;20072;-60
2023/11/14 12:06:25;;;;;;;36.47;7.00;;;;;;;;;;5047212;28;20072;-61
2023/11/14 12:08:52;;;;;;;38.80;8.05;;;;;;;;;;5046317;28;20045;-63
2023/11/14 12:11:18;;;;;;;47.35;6.68;;;;;;;;;;5045220;28;20120;-63
2023/11/14 12:13:51;;;;;;;44.00;8.30;;;;;;;;;;5044039;28;20112;-63
2023/11/14 12:16:24;;;;;;;41.20;8.02;;;;;;;;;;5045198;28;20037;-63
2023/11/14 12:18:50;;;;;;;51.20;8.85;;;;;;;;;;5044593;28;20076;-63
2023/11/14 12:21:18;;;;;;;45.42;8.45;;;;;;;;;;5043623;28;20151;-63
2023/11/14 12:23:44;;;;;;;38.40;7.60;;;;;;;;;;5045057;28;20135;-63
2023/11/14 12:26:11;;;;;;;32.47;5.68;;;;;;;;;;5052288;28;20072;-63
2023/11/14 12:28:40;;;;;;;38.63;7.00;;;;;;;;;;5050720;28;20369;-63
2023/11/14 12:31:08;;;;;;;35.20;6.45;;;;;;;;;;5036625;28;20059;-63
2023/11/14 12:33:52;;;;;;;50.70;8.98;;;;;;;;;;5051380;28;20122;-62
2023/11/14 12:36:22;;;;;;;42.25;7.28;;;;;;;;;;5054772;28;20489;-63
2023/11/14 12:38:49;;;;;;;53.13;8.38;;;;;;;;;;5071392;28;20080;-63
2023/11/14 12:41:27;;;;;;;46.33;7.30;;;;;;;;;;5055081;28;20029;-63
2023/11/14 12:43:54;;;;;;;47.65;7.70;;;;;;;;;;5052687;28;20060;-63
2023/11/14 12:46:33;;;;;;;51.88;7.40;;;;;;;;;;5052038;28;20052;-63
2023/11/14 12:49:13;;;;;;;49.80;8.48;;;;;;;;;;5050732;28;20044;-62
2023/11/14 12:51:43;;;;;;;55.05;7.78;;;;;;;;;;5061108;28;20048;-62
2023/11/14 12:54:10;;;;;;;50.90;7.45;;;;;;;;;;5046686;28;20037;-63
2023/11/14 12:56:36;;;;;;;35.72;6.15;;;;;;;;;;5057847;28;20044;-63
2023/11/14 12:59:07;;;;;;;36.78;6.10;;;;;;;;;;5044640;28;20114;-63
2023/11/14 13:01:37;;;;;;;46.83;7.95;;;;;;;;;;5067396;28;20054;-63
2023/11/14 13:04:06;;;;;;;55.33;7.57;;;;;;;;;;5056932;28;20485;-63
2023/11/14 13:06:36;;;;;;;44.05;6.22;;;;;;;;;;5049053;28;20055;-63
2023/11/14 13:09:03;;;;;;;38.65;5.95;;;;;;;;;;5056400;28;20123;-63
2023/11/14 13:11:30;;;;;;;39.65;6.22;;;;;;;;;;5059108;28;20136;-63
2023/11/14 13:13:56;;;;;;;46.85;6.00;;;;;;;;;;5055115;28;20048;-63
2023/11/14 13:16:23;;;;;;;47.13;7.15;;;;;;;;;;5062416;28;20126;-63
2023/11/14 13:18:49;;;;;;;43.60;6.82;;;;;;;;;;5058074;28;20052;-63
2023/11/14 13:21:16;;;;;;;34.45;5.68;;;;;;;;;;5060601;28;20151;-63
2023/11/14 13:23:42;;;;;;;29.60;5.20;;;;;;;;;;5051442;28;20098;-63
2023/11/14 13:26:09;;;;;;;33.95;4.65;;;;;;;;;;5051433;28;20040;-63
2023/11/14 13:28:36;;;;;;;38.72;5.50;;;;;;;;;;5048245;28;20557;-63
2023/11/14 13:31:03;;;;;;;33.67;5.13;;;;;;;;;;5051059;28;20124;-63
2023/11/14 13:33:29;;;;;;;28.70;5.25;;;;;;;;;;5032446;28;20142;-63
2023/11/14 13:35:55;;;;;;;38.65;6.85;;;;;;;;;;5048718;28;20051;-63
2023/11/14 13:38:24;;;;;;;35.45;6.00;;;;;;;;;;5065673;28;20424;-63
2023/11/14 13:40:50;;;;;;;35.47;5.68;;;;;;;;;;5049157;28;20041;-62
2023/11/14 13:43:17;;;;;;;39.65;6.32;;;;;;;;;;5064790;28;20051;-63
2023/11/14 13:45:43;;;;;;;39.03;5.82;;;;;;;;;;5054948;28;20168;-62
2023/11/14 13:48:09;;;;;;;36.78;6.53;;;;;;;;;;5052696;28;20058;-63
2023/11/14 13:50:35;;;;;;;40.38;5.85;;;;;;;;;;5067844;28;20437;-62
2023/11/14 13:53:02;;;;;;;40.97;6.13;;;;;;;;;;5070539;28;20045;-62
2023/11/14 13:55:28;;;;;;;43.70;6.20;;;;;;;;;;5047031;28;20052;-62
2023/11/14 13:57:54;;;;;;;34.67;4.75;;;;;;;;;;5036262;28;20127;-73
2023/11/14 14:00:24;;;;;;;38.63;6.90;;;;;;;;;;5048179;28;20127;-62
2023/11/14 14:02:50;;;;;;;44.05;6.07;;;;;;;;;;5069887;28;20056;-63
2023/11/14 14:05:17;;;;;;;36.38;6.55;;;;;;;;;;5050116;28;20042;-63
2023/11/14 14:07:46;;;;;;;39.40;5.85;;;;;;;;;;5061063;28;20088;-63
2023/11/14 14:10:14;;;;;;;32.00;5.55;;;;;;;;;;5044995;28;20119;-63
2023/11/14 14:12:46;;;;;;;30.45;5.13;;;;;;;;;;5059381;28;20055;-63
2023/11/14 14:15:13;;;;;;;36.28;5.70;;;;;;;;;;5066691;28;20063;-63
2023/11/14 14:17:44;;;;;;;38.97;5.43;;;;;;;;;;5069819;28;20059;-63
2023/11/14 14:20:14;;;;;;;39.08;5.07;;;;;;;;;;5063325;28;20044;-63
2023/11/14 14:22:41;;;;;;;35.30;5.25;;;;;;;;;;5058180;28;20086;-63
2023/11/14 14:25:11;;;;;;;33.42;4.53;;;;;;;;;;5047254;28;20135;-62
2023/11/14 14:27:37;;;;;;;47.05;6.22;;;;;;;;;;5043326;28;20044;-63
2023/11/14 14:30:05;;;;;;;42.33;7.25;;;;;;;;;;5054310;28;20126;-63